Latest Coastal Weather Observations for Ballina

IDN60701

Issued at 3:02 am EDT Friday 6 March 2015 (issued every 10 minutes, with the page automatically refreshed every 10 minutes)

About coastal observations | Map of coastal stations | Coastal observations for NSW | Marine services | Other Formats
Station Details ID: 058198 Name: BALLINA AIRPORT AWS Lat: -28.84 Lon: 153.56 Height: 1.3 m
Data from the previous 72 hours. | See also: Recent months at Ballina
Date/Time
EDT
Temp

°C
Wind Pressure Rain
since 9am
mm
Weather Cloud Vis
km
Sea
Height
m
Swell
Dir
 
Speed
knots
Gust
knots
hPa Trend Height
m
Period
s
Dir
06/03:00am 23.6 SE 12 15 1009.9 - 0.0 - Cloudy 10 - - - -
06/02:30am 23.7 SE 13 18 1010.1 - 0.0 - Partly cloudy 10 - - - -
06/02:00am 23.8 SSE 13 18 1010.4 - 0.0 - Partly cloudy 10 - - - -
06/01:30am 23.9 SSE 14 21 1010.5 - 0.0 - Cloudy 10 - - - -
06/01:00am 23.9 SSE 15 22 1010.6 - 0.0 - Partly cloudy 10 - - - -
06/12:30am 24.1 SSE 15 20 1010.5 - 0.0 - Partly cloudy 10 - - - -
06/12:00am 24.2 SSE 15 22 1010.6 - 0.0 - Cloudy 9 - - - -
 
Date/Time
EDT
Temp

°C
Wind Pressure Rain
since 9am
mm
Weather Cloud Vis
km
Sea
Height
m
Swell
Dir
 
Speed
knots
Gust
knots
hPa Trend Height
m
Period
s
Dir
05/11:30pm 24.5 SSE 16 24 1010.7 - 0.0 - Partly cloudy 10 - - - -
05/11:00pm 24.7 SSE 14 22 1010.6 - 0.0 - Partly cloudy 10 - - - -
05/10:30pm 25.1 SSE 15 21 1010.5 - 0.0 - Partly cloudy 10 - - - -
05/10:00pm 25.6 SSE 13 18 1010.0 - 0.0 - Partly cloudy 10 - - - -
05/09:30pm 25.4 SSE 12 16 1009.4 - 0.0 - Partly cloudy 10 - - - -
05/09:00pm 26.0 SE 11 19 1008.7 - 0.0 - Cloudy 10 - - - -
05/08:30pm 26.8 SE 12 19 1007.9 - 0.0 - Partly cloudy 10 - - - -
05/08:00pm 26.7 SE 11 16 1007.0 - 0.0 - - 10 - - - -
05/07:30pm 27.4 SE 9 16 1006.4 - 0.0 - Partly cloudy 10 - - - -
05/07:00pm 28.0 SE 9 15 1005.6 - 0.0 - Partly cloudy 10 - - - -
05/06:30pm 29.0 SE 11 15 1004.8 - 0.0 - Partly cloudy 10 - - - -
05/06:00pm 29.2 ESE 7 9 1004.0 - 0.0 - Mostly clear 10 - - - -
05/05:30pm 30.1 NE 7 10 1002.9 - 0.0 - Partly cloudy 10 - - - -
05/05:00pm 30.5 NE 9 12 1002.5 - 0.0 - Partly cloudy 10 - - - -
05/04:30pm 31.6 ENE 11 13 1002.3 - 0.0 - Partly cloudy 10 - - - -
05/04:00pm 33.1 ENE 11 13 1002.5 - 0.0 - - 10 - - - -
05/03:30pm 36.1 WSW 7 12 1002.5 - 0.0 - - 10 - - - -
05/03:00pm 35.9 W 9 14 1002.9 - 0.0 - - 10 - - - -
05/02:30pm 35.5 WSW 10 15 1003.4 - 0.0 - - 10 - - - -
05/02:00pm 35.6 WSW 10 14 1003.7 - 0.0 - - 10 - - - -
05/01:30pm 35.0 W 9 14 1004.3 - 0.0 - - 10 - - - -
05/01:00pm 35.1 WSW 9 14 1004.6 - 0.0 - - 10 - - - -
05/12:30pm 34.3 WNW 11 17 1004.9 - 0.0 - - 10 - - - -
05/12:00pm 34.1 NW 7 12 1005.3 - 0.0 - - 10 - - - -
05/11:30am 32.9 WNW 8 12 1005.7 - 0.0 - - 10 - - - -
05/11:00am 31.7 WNW 7 11 1006.3 - 0.0 - - 10 - - - -
05/10:30am 30.3 NW 7 11 1006.6 - 0.0 - - 10 - - - -
05/10:00am 29.8 NNW 7 9 1006.7 - 0.0 - - 10 - - - -
05/09:30am 28.3 NNW 5 7 1006.9 - 0.0 - - 10 - - - -
05/09:00am 27.0 NNE 4 7 1007.1 - 0.0 - - 10 - - - -
05/08:30am 25.9 NNE 4 6 1007.1 - 0.0 - - 10 - - - -
05/08:00am 23.9 N 3 5 1007.2 - 0.0 - - 10 - - - -
05/07:30am 22.4 NW 1 3 1007.3 - 0.0 - - 10 - - - -
05/07:00am 21.7 CALM 0 0 1006.9 - 0.0 - - 10 - - - -
05/06:30am 22.0 CALM 0 0 1006.7 - 0.0 - Partly cloudy 10 - - - -
05/06:00am 22.2 N 4 5 1006.4 - 0.0 - - 10 - - - -
05/05:30am 22.5 N 5 7 1006.3 - 0.0 - - 10 - - - -
05/05:00am 22.6 NW 4 5 1006.4 - 0.0 - - 10 - - - -
05/04:30am 23.2 N 6 9 1006.3 - 0.0 - - 10 - - - -
05/04:00am 23.4 N 8 11 1006.7 - 0.0 - - 10 - - - -
05/03:30am 23.6 N 11 15 1007.0 - 0.0 - - 10 - - - -
05/03:00am 23.8 N 12 17 1007.2 - 0.0 - - 10 - - - -
05/02:30am 23.9 N 12 17 1007.7 - 0.0 - - 10 - - - -
05/02:00am 24.0 N 12 21 1008.1 - 0.0 - - 10 - - - -
05/01:30am 24.2 N 13 19 1008.4 - 0.0 - - 10 - - - -
05/01:00am 24.2 N 10 17 1009.0 - 0.0 - - 10 - - - -
05/12:30am 24.3 N 10 16 1009.7 - 0.0 - - 10 - - - -
05/12:00am 24.6 N 13 17 1009.8 - 0.0 - - 10 - - - -
 
Date/Time
EDT
Temp

°C
Wind Pressure Rain
since 9am
mm
Weather Cloud Vis
km
Sea
Height
m
Swell
Dir
 
Speed
knots
Gust
knots
hPa Trend Height
m
Period
s
Dir
04/11:30pm 24.5 N 12 17 1010.2 - 0.0 - - 10 - - - -
04/11:00pm 24.5 N 11 16 1010.6 - 0.0 - - 10 - - - -
04/10:30pm 24.4 NNE 10 16 1010.7 - 0.0 - - 10 - - - -
04/10:00pm 24.5 N 9 12 1011.0 - 0.0 - - 10 - - - -
04/09:30pm 24.4 N 8 10 1011.1 - 0.0 - - 10 - - - -
04/09:00pm 24.7 NNE 9 12 1011.1 - 0.0 - - 10 - - - -
04/08:30pm 24.7 NNE 10 16 1010.8 - 0.0 - - 10 - - - -
04/08:00pm 24.7 NNE 9 14 1010.6 - 0.0 - - 10 - - - -
04/07:30pm 24.8 NNE 9 14 1010.5 - 0.0 - - 10 - - - -
04/07:00pm 25.5 NNE 10 14 1010.3 - 0.0 - - 10 - - - -
04/06:30pm 26.2 NNE 10 14 1010.1 - 0.0 - - 10 - - - -
04/06:00pm 26.8 NNE 10 13 1010.1 - 0.0 - - 10 - - - -
04/05:30pm 27.3 NNE 12 19 1010.2 - 0.0 - - 10 - - - -
04/05:00pm 27.7 NE 13 18 1010.3 - 0.0 - - 10 - - - -
04/04:30pm 27.7 NE 14 20 1010.5 - 0.0 - - 10 - - - -
04/04:00pm 27.9 NE 15 19 1010.8 - 0.0 - - 10 - - - -
04/03:30pm 27.8 NE 14 19 1011.2 - 0.0 - - 10 - - - -
04/03:00pm 28.3 NE 14 18 1011.6 - 0.0 - - 10 - - - -
04/02:30pm 27.8 NE 13 18 1012.0 - 0.0 - - 10 - - - -
04/02:00pm 27.9 NE 13 18 1012.5 - 0.0 - - 10 - - - -
04/01:30pm 28.4 NE 13 16 1013.0 - 0.0 - - 10 - - - -
04/01:00pm 28.3 NE 12 16 1013.3 - 0.0 - - 10 - - - -
04/12:30pm 27.6 NE 11 14 1013.6 - 0.0 - - 10 - - - -
04/12:00pm 28.8 NE 8 12 1013.9 - 0.0 - - 10 - - - -
04/11:30am 28.3 NE 7 10 1014.2 - 0.0 - - 10 - - - -
04/11:00am 26.4 NNW 5 9 1014.7 - 0.0 - Partly cloudy 10 - - - -
04/10:30am 25.5 NW 4 6 1014.7 - 0.0 - Partly cloudy 10 - - - -
04/10:00am 26.0 NW 5 7 1014.8 - 0.0 - Partly cloudy 10 - - - -
04/09:30am 25.2 NNW 7 9 1014.7 - 0.0 - - 10 - - - -
04/09:00am 23.9 NNW 4 5 1014.5 - 0.0 - - 10 - - - -
04/08:30am 22.2 CALM 0 0 1014.2 - 0.0 - Partly cloudy 10 - - - -
04/08:00am 20.7 W 3 4 1014.3 - 0.0 - Cloudy 10 - - - -
04/07:30am 20.0 CALM 0 0 1014.1 - 0.0 - Cloudy 10 - - - -
04/07:00am 18.4 CALM 0 0 1013.7 - 0.0 - Partly cloudy 10 - - - -
04/06:30am 18.3 CALM 0 0 1013.3 - 0.0 - Partly cloudy 10 - - - -
04/06:00am 18.8 CALM 0 0 1013.1 - 0.0 - Cloudy 10 - - - -
04/05:30am 18.4 CALM 0 0 1013.1 - 0.0 - Cloudy 10 - - - -
04/05:00am 18.2 CALM 0 0 1013.0 - 0.0 - Cloudy 10 - - - -
04/04:30am 18.1 CALM 0 0 1013.0 - 0.0 - Partly cloudy 9 - - - -
04/04:00am 18.5 CALM 0 0 1013.1 - 0.0 - - 10 - - - -
04/03:30am 18.5 CALM 0 0 1013.5 - 0.0 - Partly cloudy 7 - - - -
04/03:00am 18.4 CALM 0 0 1013.7 - 0.0 - - 10 - - - -
04/02:30am 18.7 CALM 0 0 1014.0 - 0.0 - Partly cloudy 10 - - - -
04/02:00am 18.9 CALM 0 0 1014.5 - 0.0 - - 10 - - - -
04/01:30am 19.3 CALM 0 0 1015.0 - 0.0 - - 10 - - - -
04/01:00am 19.8 CALM 0 0 1015.4 - 0.0 - - 10 - - - -
04/12:30am 19.9 CALM 0 0 1015.6 - 0.0 - - 10 - - - -
04/12:00am 20.0 CALM 0 0 1015.8 - 0.0 - - 10 - - - -
 
Date/Time
EDT
Temp

°C
Wind Pressure Rain
since 9am
mm
Weather Cloud Vis
km
Sea
Height
m
Swell
Dir
 
Speed
knots
Gust
knots
hPa Trend Height
m
Period
s
Dir
03/11:30pm 20.6 CALM 0 0 1015.9 - 0.0 - - 10 - - - -
03/11:00pm 20.6 CALM 0 0 1016.1 - 0.0 - Partly cloudy 10 - - - -
03/10:30pm 20.8 CALM 0 0 1016.2 - 0.0 - Partly cloudy 10 - - - -
03/10:00pm 21.1 CALM 0 0 1016.1 - 0.0 - - 10 - - - -
03/09:30pm 21.5 CALM 0 0 1016.0 - 0.0 - - 10 - - - -
03/09:00pm 21.6 CALM 0 0 1015.7 - 0.0 - - 10 - - - -
03/08:30pm 21.8 CALM 0 0 1015.3 - 0.0 - - 10 - - - -
03/08:00pm 22.6 E 3 4 1014.8 - 0.0 - - 10 - - - -
03/07:30pm 23.4 E 4 5 1014.7 - 0.0 - - 10 - - - -
03/07:00pm 24.5 E 6 9 1014.2 - 0.0 - - 10 - - - -
03/06:30pm 25.4 E 7 9 1014.1 - 0.0 - - 10 - - - -
03/06:00pm 26.0 ESE 7 11 1013.9 - 0.0 - - 10 - - - -
03/05:30pm 26.4 SE 9 11 1013.7 - 0.0 - - 10 - - - -
03/05:00pm 26.8 ESE 7 12 1013.9 - 0.0 - - 10 - - - -
03/04:30pm 27.4 SE 8 11 1013.8 - 0.0 - - 10 - - - -
03/04:00pm 26.8 SE 9 13 1013.8 - 0.0 - - 10 - - - -
03/03:30pm 27.6 SE 8 11 1013.9 - 0.0 - - 10 - - - -
03/03:00pm 27.0 SE 8 13 1014.3 - 0.0 - - 10 - - - -
03/02:30pm 27.4 ESE 8 13 1014.6 - 0.0 - - 10 - - - -
03/02:00pm 27.0 SSE 9 12 1015.1 - 0.0 - - 10 - - - -
03/01:30pm 27.3 SE 8 11 1015.3 - 0.0 - - 10 - - - -
03/01:00pm 27.0 SE 8 11 1015.6 - 0.0 - Partly cloudy 10 - - - -
03/12:30pm 26.9 SSE 8 11 1015.9 - 0.0 - Partly cloudy 10 - - - -
03/12:00pm 26.7 SE 8 11 1016.2 - 0.0 - Partly cloudy 10 - - - -
03/11:30am 26.7 SSE 7 10 1016.4 - 0.0 - Partly cloudy 10 - - - -
03/11:00am 25.9 WSW 4 6 1016.5 - 0.0 - Partly cloudy 10 - - - -
03/10:30am 24.8 WSW 5 7 1016.6 - 0.0 - Partly cloudy 10 - - - -
03/10:00am 24.2 WSW 6 9 1016.5 - 0.0 - Partly cloudy 10 - - - -
03/09:53am 24.2 W 7 9 1016.5 - 0.0 - Partly cloudy 10 - - - -
03/09:33am 24.1 WSW 6 9 1016.5 - 0.0 - Partly cloudy 10 - - - -
03/09:30am 24.2 WSW 6 9 1016.4 - 0.0 - Partly cloudy 10 - - - -
03/09:00am 23.1 WSW 7 9 1016.3 - 2.6 - - 10 - - - -
03/08:30am 22.2 W 5 7 1016.0 - 2.6 - Partly cloudy 10 - - - -
03/08:00am 21.5 W 6 7 1015.8 - 2.6 - Partly cloudy 10 - - - -
03/07:30am 20.7 W 4 5 1015.7 - 2.6 - Partly cloudy 10 - - - -
03/07:00am 19.8 W 3 4 1015.3 - 2.6 - Partly cloudy 10 - - - -
03/06:30am 20.0 W 4 5 1014.9 - 2.6 - Partly cloudy 10 - - - -
03/06:00am 20.4 W 4 5 1014.9 - 2.6 - Cloudy 10 - - - -
03/05:30am 20.1 WSW 5 6 1014.7 - 2.6 - Partly cloudy 10 - - - -
03/05:00am 20.6 WSW 6 7 1014.6 - 2.6 - - 10 - - - -
03/04:30am 20.7 W 5 5 1014.6 - 2.6 - Partly cloudy 10 - - - -
03/04:00am 21.3 SW 7 8 1014.5 - 2.6 - Partly cloudy 10 - - - -
03/03:30am 21.3 SW 6 8 1014.6 - 2.6 - Partly cloudy 10 - - - -

Other Formats:

Comma delimited format used in spreadsheet applications
http://www.bom.gov.au/fwo/IDN60701/IDN60701.94596.axf

JavaScript Object Notation format (JSON) in row-major order
http://www.bom.gov.au/fwo/IDN60701/IDN60701.94596.json